Time;durP1;ratioP1;P1;durP2;ratioP2;P2;SDS_P1;SDS_P2;PMS_P1;PMS_P2;Temp;Humidity;BMP_temperature;BMP_pressure;BME280_temperature;BME280_humidity;BME280_pressure;Samples;Min_cycle;Max_cycle;Signal;HPM_P1;HPM_P2
2023/07/11 00:00:53;;;;;;;;;;;26.40;49.90;;;;;;1563916;75;727;-60
2023/07/11 00:02:55;;;;;;;;;;;26.40;49.70;;;;;;1564605;75;1702;-61
2023/07/11 00:04:58;;;;;;;;;;;26.40;49.60;;;;;;1554829;75;772;-60
2023/07/11 00:07:00;;;;;;;;;;;26.40;49.60;;;;;;1558475;75;1019;-61
2023/07/11 00:09:02;;;;;;;;;;;26.40;49.50;;;;;;1564373;75;1144;-58
2023/07/11 00:11:05;;;;;;;;;;;26.50;49.30;;;;;;1569076;75;744;-58
2023/07/11 00:13:11;;;;;;;;;;;26.40;49.30;;;;;;1537219;76;1940;-58
2023/07/11 00:15:11;;;;;;;;;;;26.40;49.20;;;;;;1559246;75;1621;-58
2023/07/11 00:17:13;;;;;;;;;;;26.40;49.30;;;;;;1565403;74;696;-61
2023/07/11 00:19:15;;;;;;;;;;;26.40;49.30;;;;;;1568733;75;1178;-60
2023/07/11 00:21:17;;;;;;;;;;;26.50;49.40;;;;;;1572731;74;754;-61
2023/07/11 00:23:19;;;;;;;;;;;26.50;49.10;;;;;;1554637;75;786;-61
2023/07/11 00:25:21;;;;;;;;;;;26.40;49.30;;;;;;1553162;75;728;-60
2023/07/11 00:27:23;;;;;;;;;;;26.40;49.40;;;;;;1564047;75;788;-60
2023/07/11 00:29:25;;;;;;;;;;;26.40;49.20;;;;;;1569217;75;1642;-61
2023/07/11 00:31:27;;;;;;;;;;;26.40;48.90;;;;;;1560108;75;670;-60
2023/07/11 00:33:29;;;;;;;;;;;26.40;49.20;;;;;;1551568;74;1954;-60
2023/07/11 00:35:31;;;;;;;;;;;26.40;49.00;;;;;;1547154;74;715;-59
2023/07/11 00:37:34;;;;;;;;;;;26.40;49.20;;;;;;1552018;74;769;-57
2023/07/11 00:39:36;;;;;;;;;;;26.40;49.20;;;;;;1542843;75;1196;-58
2023/07/11 00:41:38;;;;;;;;;;;26.40;49.20;;;;;;1543092;74;789;-58
2023/07/11 00:43:40;;;;;;;;;;;26.50;49.40;;;;;;1557474;75;1554;-61
2023/07/11 00:46:00;;;;;;;;;;;26.50;49.00;;;;;;1561415;75;700;-60
2023/07/11 00:48:01;;;;;;;;;;;26.50;49.30;;;;;;1565988;75;688;-60
2023/07/11 00:50:04;;;;;;;;;;;26.50;49.40;;;;;;1560931;75;1143;-59
2023/07/11 00:52:06;;;;;;;;;;;26.50;49.10;;;;;;1555810;74;1935;-60
2023/07/11 00:54:09;;;;;;;;;;;26.40;49.40;;;;;;1568391;75;611;-61
2023/07/11 00:56:11;;;;;;;;;;;26.50;49.60;;;;;;1557486;75;665;-61
2023/07/11 00:58:13;;;;;;;;;;;26.40;49.50;;;;;;1551105;75;1603;-61
2023/07/11 01:00:16;;;;;;;;;;;26.40;49.40;;;;;;1564718;75;715;-60
2023/07/11 01:02:19;;;;;;;;;;;26.40;49.70;;;;;;1548292;74;694;-60
2023/07/11 01:04:21;;;;;;;;;;;26.50;49.20;;;;;;1548467;74;760;-61
2023/07/11 01:06:24;;;;;;;;;;;26.50;49.10;;;;;;1555102;75;635;-61
2023/07/11 01:08:26;;;;;;;;;;;26.50;49.10;;;;;;1545211;74;1154;-61
2023/07/11 01:10:27;;;;;;;;;;;26.60;48.90;;;;;;1544204;74;769;-61
2023/07/11 01:12:29;;;;;;;;;;;26.60;48.80;;;;;;1551921;74;1946;-60
2023/07/11 01:14:31;;;;;;;;;;;26.60;48.80;;;;;;1547230;74;790;-59
2023/07/11 01:16:33;;;;;;;;;;;26.50;49.10;;;;;;1570527;75;806;-60
2023/07/11 01:18:35;;;;;;;;;;;26.50;49.20;;;;;;1548352;74;1205;-60
2023/07/11 01:20:37;;;;;;;;;;;26.50;49.20;;;;;;1546833;74;738;-61
2023/07/11 01:22:39;;;;;;;;;;;26.50;49.20;;;;;;1554018;75;640;-60
2023/07/11 01:24:41;;;;;;;;;;;26.40;49.40;;;;;;1563214;75;692;-60
2023/07/11 01:26:43;;;;;;;;;;;26.40;49.40;;;;;;1552763;75;1329;-60
2023/07/11 01:28:44;;;;;;;;;;;26.40;49.30;;;;;;1546074;74;1157;-60
2023/07/11 01:30:46;;;;;;;;;;;26.50;49.50;;;;;;1554281;75;740;-61
2023/07/11 01:32:48;;;;;;;;;;;26.50;49.50;;;;;;1550837;74;1947;-61
2023/07/11 01:34:50;;;;;;;;;;;26.50;49.60;;;;;;1550759;75;803;-61
2023/07/11 01:36:52;;;;;;;;;;;26.50;49.70;;;;;;1552755;75;778;-61
2023/07/11 01:38:54;;;;;;;;;;;26.40;49.60;;;;;;1546762;75;1196;-61
2023/07/11 01:40:56;;;;;;;;;;;26.40;49.60;;;;;;1553681;74;1517;-61
2023/07/11 01:42:58;;;;;;;;;;;26.50;49.50;;;;;;1551321;74;764;-61
2023/07/11 01:44:59;;;;;;;;;;;26.50;49.20;;;;;;1555168;74;833;-61
2023/07/11 01:47:02;;;;;;;;;;;26.50;49.30;;;;;;1553839;75;738;-62
2023/07/11 01:49:04;;;;;;;;;;;26.50;49.20;;;;;;1563907;75;1090;-61
2023/07/11 01:51:06;;;;;;;;;;;26.60;49.10;;;;;;1559527;75;747;-61
2023/07/11 01:53:08;;;;;;;;;;;26.60;49.20;;;;;;1551441;75;1937;-61
2023/07/11 01:55:10;;;;;;;;;;;26.60;49.10;;;;;;1553249;75;1667;-61
2023/07/11 01:57:12;;;;;;;;;;;26.50;49.20;;;;;;1558655;75;810;-62
2023/07/11 01:59:13;;;;;;;;;;;26.50;49.00;;;;;;1555998;74;1156;-61
2023/07/11 02:01:15;;;;;;;;;;;26.50;49.20;;;;;;1555580;75;688;-61
2023/07/11 02:03:17;;;;;;;;;;;26.60;49.00;;;;;;1557428;75;745;-60
2023/07/11 02:05:20;;;;;;;;;;;26.60;49.10;;;;;;1562090;75;786;-60
2023/07/11 02:07:22;;;;;;;;;;;26.60;49.00;;;;;;1551100;75;737;-60
2023/07/11 02:09:24;;;;;;;;;;;26.50;49.20;;;;;;1560113;75;1661;-60
2023/07/11 02:11:26;;;;;;;;;;;26.50;49.00;;;;;;1551755;75;726;-60
2023/07/11 02:13:28;;;;;;;;;;;26.50;49.10;;;;;;1552983;75;1936;-61
2023/07/11 02:15:29;;;;;;;;;;;26.50;49.00;;;;;;1562113;75;582;-61
2023/07/11 02:17:32;;;;;;;;;;;26.60;48.80;;;;;;1548285;75;785;-61
2023/07/11 02:19:34;;;;;;;;;;;26.60;48.70;;;;;;1562806;74;1282;-61
2023/07/11 02:21:36;;;;;;;;;;;26.60;48.60;;;;;;1548671;75;787;-60
2023/07/11 02:23:38;;;;;;;;;;;26.50;48.70;;;;;;1544555;74;1666;-61
2023/07/11 02:25:40;;;;;;;;;;;26.50;48.60;;;;;;1554329;74;753;-61
2023/07/11 02:27:41;;;;;;;;;;;26.50;48.70;;;;;;1557685;75;715;-60
2023/07/11 02:29:43;;;;;;;;;;;26.50;48.90;;;;;;1554343;74;1154;-62
2023/07/11 02:31:45;;;;;;;;;;;26.40;49.00;;;;;;1555308;75;664;-61
2023/07/11 02:33:48;;;;;;;;;;;26.40;49.10;;;;;;1568345;74;1937;-61
2023/07/11 02:35:49;;;;;;;;;;;26.40;49.10;;;;;;1557167;75;808;-61
2023/07/11 02:37:52;;;;;;;;;;;26.40;49.10;;;;;;1556669;75;736;-59
2023/07/11 02:39:53;;;;;;;;;;;26.40;48.90;;;;;;1556180;75;1121;-61
2023/07/11 02:41:55;;;;;;;;;;;26.40;48.80;;;;;;1549960;74;732;-60
2023/07/11 02:43:57;;;;;;;;;;;26.40;49.00;;;;;;1554550;75;767;-60
2023/07/11 02:45:59;;;;;;;;;;;26.40;49.20;;;;;;1556608;75;725;-60
2023/07/11 02:48:01;;;;;;;;;;;26.40;49.00;;;;;;1560886;75;545;-58
2023/07/11 02:50:03;;;;;;;;;;;26.40;48.70;;;;;;1553302;75;1547;-58
2023/07/11 02:52:07;;;;;;;;;;;26.40;48.90;;;;;;1547059;75;774;-59
2023/07/11 02:54:08;;;;;;;;;;;26.40;48.60;;;;;;1551156;75;1906;-59
2023/07/11 02:56:10;;;;;;;;;;;26.40;48.70;;;;;;1553684;75;927;-59
2023/07/11 02:58:12;;;;;;;;;;;26.40;49.00;;;;;;1564661;75;782;-61
2023/07/11 03:00:14;;;;;;;;;;;26.30;49.20;;;;;;1554752;75;1145;-60
2023/07/11 03:02:16;;;;;;;;;;;26.30;49.30;;;;;;1543396;75;682;-59
2023/07/11 03:04:18;;;;;;;;;;;26.40;49.60;;;;;;1556429;75;1547;-59
2023/07/11 03:06:20;;;;;;;;;;;26.40;49.50;;;;;;1564784;75;706;-60
2023/07/11 03:08:21;;;;;;;;;;;26.40;49.50;;;;;;1557494;75;1150;-60
2023/07/11 03:10:23;;;;;;;;;;;26.50;49.50;;;;;;1546186;75;800;-58
2023/07/11 03:12:25;;;;;;;;;;;26.40;48.90;;;;;;1555116;75;759;-60
2023/07/11 03:14:27;;;;;;;;;;;26.40;48.80;;;;;;1558274;75;1943;-60
2023/07/11 03:16:29;;;;;;;;;;;26.40;49.00;;;;;;1554317;75;780;-59
2023/07/11 03:18:31;;;;;;;;;;;26.50;48.90;;;;;;1553662;74;1516;-59
2023/07/11 03:20:39;;;;;;;;;;;26.50;48.70;;;;;;1554796;75;732;-59
2023/07/11 03:22:41;;;;;;;;;;;26.50;48.80;;;;;;1555443;75;674;-59
2023/07/11 03:24:43;;;;;;;;;;;26.40;48.70;;;;;;1558979;75;785;-59
2023/07/11 03:26:46;;;;;;;;;;;26.50;48.80;;;;;;1558124;75;676;-60
2023/07/11 03:28:48;;;;;;;;;;;26.50;48.70;;;;;;1554648;75;1122;-59
2023/07/11 03:30:51;;;;;;;;;;;26.40;49.00;;;;;;1556387;74;699;-60
2023/07/11 03:32:53;;;;;;;;;;;26.50;48.70;;;;;;1556508;75;1923;-60
2023/07/11 03:34:55;;;;;;;;;;;26.50;48.60;;;;;;1556289;75;990;-59
2023/07/11 03:36:56;;;;;;;;;;;26.50;48.60;;;;;;1555819;75;733;-59
2023/07/11 03:38:58;;;;;;;;;;;26.50;48.60;;;;;;1560948;74;1247;-61
2023/07/11 03:41:00;;;;;;;;;;;26.50;48.70;;;;;;1558591;75;753;-60
2023/07/11 03:43:02;;;;;;;;;;;26.50;48.60;;;;;;1560506;75;769;-60
2023/07/11 03:45:14;;;;;;;;;;;26.50;48.60;;;;;;1554688;75;729;-60
2023/07/11 03:47:14;;;;;;;;;;;26.50;48.90;;;;;;1553554;75;1626;-60
2023/07/11 03:49:15;;;;;;;;;;;26.40;48.90;;;;;;1570271;74;1156;-59
2023/07/11 03:51:17;;;;;;;;;;;26.50;48.70;;;;;;1558389;75;724;-60
2023/07/11 03:53:19;;;;;;;;;;;26.40;48.80;;;;;;1558336;74;1942;-60
2023/07/11 03:55:21;;;;;;;;;;;26.40;48.80;;;;;;1560333;75;790;-59
2023/07/11 03:57:23;;;;;;;;;;;26.40;49.00;;;;;;1570699;75;654;-60
2023/07/11 03:59:25;;;;;;;;;;;26.40;49.20;;;;;;1568922;74;1089;-60
2023/07/11 04:01:27;;;;;;;;;;;26.40;49.60;;;;;;1563862;75;1350;-60
2023/07/11 04:03:29;;;;;;;;;;;26.30;49.40;;;;;;1565567;75;774;-59
2023/07/11 04:05:31;;;;;;;;;;;26.30;49.70;;;;;;1555273;75;710;-60
2023/07/11 04:07:32;;;;;;;;;;;26.30;50.10;;;;;;1568256;74;824;-59
2023/07/11 04:09:34;;;;;;;;;;;26.40;50.20;;;;;;1558036;75;1138;-60
2023/07/11 04:11:36;;;;;;;;;;;26.50;50.00;;;;;;1567260;75;703;-59
2023/07/11 04:13:38;;;;;;;;;;;26.50;50.00;;;;;;1564579;75;1934;-60
2023/07/11 04:15:40;;;;;;;;;;;26.50;49.90;;;;;;1570572;75;1532;-59
2023/07/11 04:17:42;;;;;;;;;;;26.50;49.90;;;;;;1570872;75;733;-59
2023/07/11 04:19:44;;;;;;;;;;;26.50;49.50;;;;;;1565804;75;1139;-60
2023/07/11 04:21:45;;;;;;;;;;;26.60;49.70;;;;;;1573558;75;768;-60
2023/07/11 04:23:47;;;;;;;;;;;26.50;49.40;;;;;;1568181;75;727;-60
2023/07/11 04:25:49;;;;;;;;;;;26.60;49.20;;;;;;1581087;74;763;-60
2023/07/11 04:27:51;;;;;;;;;;;26.60;49.40;;;;;;1569736;74;726;-59
2023/07/11 04:29:53;;;;;;;;;;;26.50;49.40;;;;;;1576530;74;1615;-60
2023/07/11 04:31:55;;;;;;;;;;;26.50;49.40;;;;;;1561284;75;872;-59
2023/07/11 04:33:57;;;;;;;;;;;26.50;49.50;;;;;;1571636;74;1923;-59
2023/07/11 04:36:06;;;;;;;;;;;26.50;49.20;;;;;;1578822;74;1103;-60
2023/07/11 04:38:08;;;;;;;;;;;26.50;49.30;;;;;;1571319;74;817;-60
2023/07/11 04:40:11;;;;;;;;;;;26.50;49.20;;;;;;1563917;74;1136;-59
2023/07/11 04:42:13;;;;;;;;;;;26.50;49.40;;;;;;1555955;74;612;-59
2023/07/11 04:44:15;;;;;;;;;;;26.50;49.60;;;;;;1556631;74;1665;-60
2023/07/11 04:46:17;;;;;;;;;;;26.50;49.30;;;;;;1574194;74;728;-59
2023/07/11 04:48:19;;;;;;;;;;;26.50;49.30;;;;;;1565693;74;1122;-59
2023/07/11 04:50:21;;;;;;;;;;;26.50;49.20;;;;;;1557971;74;716;-60
2023/07/11 04:52:24;;;;;;;;;;;26.50;49.40;;;;;;1575385;74;700;-60
2023/07/11 04:54:26;;;;;;;;;;;26.50;49.60;;;;;;1568465;74;1925;-61
2023/07/11 04:56:28;;;;;;;;;;;26.50;50.20;;;;;;1561862;74;749;-61
2023/07/11 04:58:30;;;;;;;;;;;26.40;49.70;;;;;;1562009;74;1145;-61
2023/07/11 05:00:32;;;;;;;;;;;26.40;49.10;;;;;;1561146;74;782;-62
2023/07/11 05:02:34;;;;;;;;;;;26.50;48.90;;;;;;1561552;74;706;-63
2023/07/11 05:04:37;;;;;;;;;;;26.40;49.00;;;;;;1563723;74;593;-63
2023/07/11 05:06:40;;;;;;;;;;;26.40;49.00;;;;;;1520672;76;1422;-62
2023/07/11 05:08:42;;;;;;;;;;;26.50;49.40;;;;;;1567661;74;1117;-61
2023/07/11 05:10:53;;;;;;;;;;;26.40;49.00;;;;;;1575184;74;1522;-62
2023/07/11 05:12:55;;;;;;;;;;;26.40;48.90;;;;;;1562388;74;735;-62
2023/07/11 05:14:57;;;;;;;;;;;26.30;48.90;;;;;;1559506;74;1917;-63
2023/07/11 05:16:59;;;;;;;;;;;26.40;49.40;;;;;;1574188;74;760;-62
2023/07/11 05:19:01;;;;;;;;;;;26.40;49.30;;;;;;1556140;74;1145;-61
2023/07/11 05:21:03;;;;;;;;;;;26.30;49.40;;;;;;1573319;74;727;-61
2023/07/11 05:23:05;;;;;;;;;;;26.20;49.40;;;;;;1571478;74;754;-61
2023/07/11 05:25:07;;;;;;;;;;;26.30;49.40;;;;;;1567012;74;1566;-61
2023/07/11 05:27:09;;;;;;;;;;;26.30;49.50;;;;;;1574998;74;750;-64
2023/07/11 05:29:11;;;;;;;;;;;26.20;49.60;;;;;;1558534;74;1162;-60
2023/07/11 05:31:13;;;;;;;;;;;26.20;49.90;;;;;;1564744;74;634;-61
2023/07/11 05:33:15;;;;;;;;;;;26.20;50.00;;;;;;1566622;74;753;-61
2023/07/11 05:35:17;;;;;;;;;;;26.20;50.10;;;;;;1554022;74;1931;-60
2023/07/11 05:37:19;;;;;;;;;;;26.20;50.00;;;;;;1557386;75;691;-61
2023/07/11 05:39:21;;;;;;;;;;;26.20;49.90;;;;;;1560231;74;1515;-60
2023/07/11 05:41:23;;;;;;;;;;;26.30;49.70;;;;;;1574164;74;725;-60
2023/07/11 05:43:25;;;;;;;;;;;26.30;49.90;;;;;;1565981;74;635;-60
2023/07/11 05:45:26;;;;;;;;;;;26.30;49.70;;;;;;1567990;74;757;-60
2023/07/11 05:47:28;;;;;;;;;;;26.30;49.40;;;;;;1570396;74;729;-60
2023/07/11 05:49:30;;;;;;;;;;;26.30;49.40;;;;;;1566670;74;1140;-59
2023/07/11 05:51:32;;;;;;;;;;;26.30;49.30;;;;;;1572573;74;779;-60
2023/07/11 05:53:34;;;;;;;;;;;26.30;49.20;;;;;;1555932;74;1927;-60
2023/07/11 05:55:36;;;;;;;;;;;26.30;49.40;;;;;;1568867;74;771;-60
2023/07/11 05:57:38;;;;;;;;;;;26.30;49.10;;;;;;1560940;74;679;-59
2023/07/11 05:59:40;;;;;;;;;;;26.40;49.00;;;;;;1555958;74;1121;-58
2023/07/11 06:01:42;;;;;;;;;;;26.30;49.10;;;;;;1565966;74;726;-59
2023/07/11 06:03:46;;;;;;;;;;;26.30;48.90;;;;;;1574946;74;737;-59
2023/07/11 06:05:48;;;;;;;;;;;26.30;48.90;;;;;;1579528;74;721;-60
2023/07/11 06:07:50;;;;;;;;;;;26.30;48.90;;;;;;1563039;74;1524;-60
2023/07/11 06:09:52;;;;;;;;;;;26.30;48.80;;;;;;1569491;74;1056;-61
2023/07/11 06:11:54;;;;;;;;;;;26.30;48.70;;;;;;1572072;74;721;-60
2023/07/11 06:13:56;;;;;;;;;;;26.30;48.80;;;;;;1564460;74;1947;-62
2023/07/11 06:16:02;;;;;;;;;;;26.30;48.70;;;;;;1569840;74;688;-61
2023/07/11 06:18:04;;;;;;;;;;;26.30;48.80;;;;;;1562024;74;1046;-60
2023/07/11 06:20:09;;;;;;;;;;;26.30;48.70;;;;;;1565719;74;1113;-59
2023/07/11 06:22:12;;;;;;;;;;;26.30;48.80;;;;;;1565366;74;1479;-60
2023/07/11 06:24:14;;;;;;;;;;;26.30;48.80;;;;;;1569190;74;717;-60
2023/07/11 06:26:16;;;;;;;;;;;26.30;48.80;;;;;;1557765;74;729;-59
2023/07/11 06:28:18;;;;;;;;;;;26.30;48.90;;;;;;1569492;74;1197;-60
2023/07/11 06:30:19;;;;;;;;;;;26.30;48.70;;;;;;1569087;74;784;-60
2023/07/11 06:32:21;;;;;;;;;;;26.30;48.90;;;;;;1562726;74;798;-61
2023/07/11 06:34:23;;;;;;;;;;;26.30;48.90;;;;;;1553069;74;1938;-60
2023/07/11 06:36:25;;;;;;;;;;;26.30;48.70;;;;;;1553875;74;1547;-62
2023/07/11 06:38:27;;;;;;;;;;;26.30;48.90;;;;;;1554444;74;1178;-59
2023/07/11 06:40:29;;;;;;;;;;;26.30;48.90;;;;;;1554782;74;681;-60
2023/07/11 06:42:31;;;;;;;;;;;26.30;48.80;;;;;;1563836;74;776;-61
2023/07/11 06:44:32;;;;;;;;;;;26.40;48.70;;;;;;1575233;74;722;-60
2023/07/11 06:46:35;;;;;;;;;;;26.40;48.80;;;;;;1555590;74;873;-61
2023/07/11 06:48:37;;;;;;;;;;;26.40;48.70;;;;;;1551577;74;1129;-60
2023/07/11 06:50:38;;;;;;;;;;;26.40;48.60;;;;;;1571131;74;1604;-59
2023/07/11 06:52:40;;;;;;;;;;;26.30;48.80;;;;;;1556600;74;753;-60
2023/07/11 06:54:42;;;;;;;;;;;26.30;48.90;;;;;;1555987;74;1939;-59
2023/07/11 06:56:44;;;;;;;;;;;26.40;48.70;;;;;;1573728;74;777;-60
2023/07/11 06:58:47;;;;;;;;;;;26.30;48.90;;;;;;1573459;74;1140;-60
2023/07/11 07:00:53;;;;;;;;;;;26.30;48.90;;;;;;1580675;74;721;-60
2023/07/11 07:02:55;;;;;;;;;;;26.30;48.80;;;;;;1564740;74;892;-59
2023/07/11 07:04:57;;;;;;;;;;;26.30;48.70;;;;;;1566066;74;1625;-59
2023/07/11 07:06:59;;;;;;;;;;;26.40;48.90;;;;;;1561167;74;736;-58
2023/07/11 07:09:01;;;;;;;;;;;26.40;48.90;;;;;;1562303;74;1164;-59
2023/07/11 07:11:02;;;;;;;;;;;26.30;48.90;;;;;;1563376;74;731;-62
2023/07/11 07:13:04;;;;;;;;;;;26.40;48.90;;;;;;1567115;74;733;-61
2023/07/11 07:15:07;;;;;;;;;;;26.30;48.80;;;;;;1556969;74;1946;-58
2023/07/11 07:17:08;;;;;;;;;;;26.30;48.90;;;;;;1561061;74;1571;-60
2023/07/11 07:19:11;;;;;;;;;;;26.30;48.70;;;;;;1557853;74;1153;-62
2023/07/11 07:21:13;;;;;;;;;;;26.30;48.80;;;;;;1554561;74;721;-58
2023/07/11 07:23:15;;;;;;;;;;;26.30;48.70;;;;;;1562299;74;701;-59
2023/07/11 07:25:17;;;;;;;;;;;26.30;48.80;;;;;;1567658;74;678;-60
2023/07/11 07:27:18;;;;;;;;;;;26.30;48.80;;;;;;1563451;74;723;-58
2023/07/11 07:29:22;;;;;;;;;;;26.30;48.90;;;;;;1557191;74;1154;-59
2023/07/11 07:31:23;;;;;;;;;;;26.30;48.90;;;;;;1562648;74;1510;-61
2023/07/11 07:33:26;;;;;;;;;;;26.30;49.10;;;;;;1556575;74;780;-59
2023/07/11 07:35:28;;;;;;;;;;;26.40;49.00;;;;;;1562072;74;1942;-60
2023/07/11 07:37:30;;;;;;;;;;;26.40;49.20;;;;;;1570817;74;1460;-60
2023/07/11 07:39:31;;;;;;;;;;;26.40;49.30;;;;;;1563706;74;1141;-58
2023/07/11 07:41:33;;;;;;;;;;;26.30;49.30;;;;;;1555152;74;779;-60
2023/07/11 07:43:40;;;;;;;;;;;26.30;49.20;;;;;;1559247;74;756;-59
2023/07/11 07:45:39;;;;;;;;;;;26.30;49.20;;;;;;1564890;74;1511;-61
2023/07/11 07:47:41;;;;;;;;;;;26.40;49.20;;;;;;1556177;74;695;-59
2023/07/11 07:49:43;;;;;;;;;;;26.40;49.10;;;;;;1563243;74;1120;-59
2023/07/11 07:51:44;;;;;;;;;;;26.40;49.20;;;;;;1563777;74;723;-60
2023/07/11 07:53:46;;;;;;;;;;;26.40;49.00;;;;;;1565654;74;774;-59
2023/07/11 07:55:48;;;;;;;;;;;26.40;49.20;;;;;;1579393;74;1945;-60
2023/07/11 07:57:50;;;;;;;;;;;26.40;49.20;;;;;;1564510;74;723;-60
2023/07/11 07:59:52;;;;;;;;;;;26.40;49.10;;;;;;1555883;74;1521;-60
2023/07/11 08:01:54;;;;;;;;;;;26.50;49.20;;;;;;1558924;74;629;-60
2023/07/11 08:03:56;;;;;;;;;;;26.40;49.10;;;;;;1554739;74;783;-58
2023/07/11 08:05:58;;;;;;;;;;;26.50;49.10;;;;;;1570093;74;714;-60
2023/07/11 08:08:00;;;;;;;;;;;26.40;49.10;;;;;;1570361;74;987;-60
2023/07/11 08:10:02;;;;;;;;;;;26.40;49.10;;;;;;1568988;74;1053;-60
2023/07/11 08:12:08;;;;;;;;;;;26.40;49.10;;;;;;1555960;74;900;-59
2023/07/11 08:14:10;;;;;;;;;;;26.40;49.00;;;;;;1562955;74;1508;-60
2023/07/11 08:16:12;;;;;;;;;;;26.50;48.70;;;;;;1553949;74;1935;-58
2023/07/11 08:18:14;;;;;;;;;;;26.50;48.60;;;;;;1557399;74;739;-59
2023/07/11 08:20:16;;;;;;;;;;;26.50;48.60;;;;;;1567629;74;893;-61
2023/07/11 08:22:18;;;;;;;;;;;26.50;48.50;;;;;;1563799;74;735;-60
2023/07/11 08:24:20;;;;;;;;;;;26.50;48.50;;;;;;1556527;74;749;-60
2023/07/11 08:26:22;;;;;;;;;;;26.50;48.30;;;;;;1554207;74;781;-60
2023/07/11 08:28:24;;;;;;;;;;;26.60;48.40;;;;;;1567944;74;1516;-59
2023/07/11 08:30:26;;;;;;;;;;;26.50;48.40;;;;;;1559978;74;731;-60
2023/07/11 08:32:28;;;;;;;;;;;26.50;48.40;;;;;;1563350;74;676;-57
2023/07/11 08:34:29;;;;;;;;;;;26.60;48.20;;;;;;1562545;74;763;-59
2023/07/11 08:36:31;;;;;;;;;;;26.50;48.40;;;;;;1565943;74;1950;-59
2023/07/11 08:38:33;;;;;;;;;;;26.50;48.30;;;;;;1562666;75;1165;-60
2023/07/11 08:40:37;;;;;;;;;;;26.50;48.40;;;;;;1566589;75;697;-61
2023/07/11 08:42:44;;;;;;;;;;;26.50;48.50;;;;;;1572671;74;1545;-59
2023/07/11 08:44:44;;;;;;;;;;;26.50;48.40;;;;;;1579207;75;1606;-60
2023/07/11 08:46:48;;;;;;;;;;;26.50;48.40;;;;;;1565059;75;1786;-61
2023/07/11 08:48:51;;;;;;;;;;;26.50;48.40;;;;;;1580036;74;1950;-60
2023/07/11 08:50:55;;;;;;;;;;;26.50;48.40;;;;;;1565316;75;1802;-58
2023/07/11 08:52:59;;;;;;;;;;;26.50;48.40;;;;;;1570555;75;1653;-61
2023/07/11 08:55:12;;;;;;;;;;;26.50;48.40;;;;;;1573784;74;1909;-58
2023/07/11 08:57:14;;;;;;;;;;;26.50;48.30;;;;;;1562450;75;1380;-60
2023/07/11 08:59:24;;;;;;;;;;;26.50;48.40;;;;;;1570207;75;1133;-59
2023/07/11 09:01:33;;;;;;;;;;;26.40;48.40;;;;;;1561128;75;668;-59
2023/07/11 09:03:38;;;;;;;;;;;26.50;48.30;;;;;;1560419;75;1839;-60
2023/07/11 09:05:48;;;;;;;;;;;26.50;48.50;;;;;;1563944;75;677;-60
2023/07/11 09:07:52;;;;;;;;;;;26.50;47.90;;;;;;1567652;75;714;-60
2023/07/11 09:09:53;;;;;;;;;;;26.50;47.80;;;;;;1569457;75;1652;-59
2023/07/11 09:12:12;;;;;;;;;;;26.60;47.80;;;;;;1571833;75;857;-59
2023/07/11 09:14:18;;;;;;;;;;;26.70;47.80;;;;;;1570379;75;793;-60
2023/07/11 09:16:31;;;;;;;;;;;26.70;47.70;;;;;;1562420;74;1951;-60
2023/07/11 09:18:34;;;;;;;;;;;26.80;47.70;;;;;;1580524;75;1868;-60
2023/07/11 09:20:46;;;;;;;;;;;26.80;47.60;;;;;;1573281;75;1827;-60
2023/07/11 09:22:55;;;;;;;;;;;26.80;47.60;;;;;;1561751;75;770;-59
2023/07/11 09:25:05;;;;;;;;;;;26.90;47.50;;;;;;1569256;75;1568;-59
2023/07/11 09:27:19;;;;;;;;;;;26.90;47.40;;;;;;1566791;75;1541;-62
2023/07/11 09:29:20;;;;;;;;;;;26.90;47.50;;;;;;1561697;74;1963;-60
2023/07/11 09:31:22;;;;;;;;;;;26.90;47.40;;;;;;1562434;74;706;-59
2023/07/11 09:33:28;;;;;;;;;;;26.90;47.30;;;;;;1574596;75;769;-58
2023/07/11 09:35:31;;;;;;;;;;;27.00;47.90;;;;;;1569430;75;1935;-59
2023/07/11 09:37:37;;;;;;;;;;;27.00;47.30;;;;;;1580303;74;1081;-60
2023/07/11 09:39:50;;;;;;;;;;;26.90;46.80;;;;;;1579985;74;1576;-60
2023/07/11 09:41:55;;;;;;;;;;;26.90;46.90;;;;;;1586237;74;769;-59
2023/07/11 09:43:57;;;;;;;;;;;26.90;46.80;;;;;;1577636;74;795;-59
2023/07/11 09:45:59;;;;;;;;;;;27.10;47.40;;;;;;1577841;74;752;-58
2023/07/11 09:48:11;;;;;;;;;;;27.10;47.40;;;;;;1581534;74;748;-60
2023/07/11 09:50:18;;;;;;;;;;;27.10;47.40;;;;;;1579316;74;1147;-60
2023/07/11 09:52:21;;;;;;;;;;;27.10;47.50;;;;;;1565296;74;1689;-59
2023/07/11 09:54:24;;;;;;;;;;;27.10;47.40;;;;;;1583851;74;725;-60
2023/07/11 09:56:26;;;;;;;;;;;27.10;47.30;;;;;;1595616;74;1936;-59
2023/07/11 09:58:29;;;;;;;;;;;27.10;47.20;;;;;;1580144;74;1128;-59
2023/07/11 10:00:31;;;;;;;;;;;27.10;47.20;;;;;;1581403;74;803;-59
2023/07/11 10:02:33;;;;;;;;;;;27.10;47.20;;;;;;1574607;74;791;-60
2023/07/11 10:04:35;;;;;;;;;;;27.10;47.30;;;;;;1574695;74;775;-60
2023/07/11 10:06:39;;;;;;;;;;;27.10;47.30;;;;;;1584997;74;1519;-60
2023/07/11 10:08:43;;;;;;;;;;;27.10;47.30;;;;;;1578631;74;1155;-60
2023/07/11 10:10:52;;;;;;;;;;;27.10;47.10;;;;;;1558137;75;700;-61
2023/07/11 10:12:54;;;;;;;;;;;27.10;47.10;;;;;;1574053;74;769;-62
2023/07/11 10:14:59;;;;;;;;;;;27.10;47.10;;;;;;1575488;74;782;-60
2023/07/11 10:17:06;;;;;;;;;;;27.10;47.10;;;;;;1592399;74;1938;-59
2023/07/11 10:19:09;;;;;;;;;;;27.10;47.10;;;;;;1581859;74;1884;-58
2023/07/11 10:21:12;;;;;;;;;;;27.10;47.10;;;;;;1579037;74;1697;-58
2023/07/11 10:23:14;;;;;;;;;;;27.10;47.10;;;;;;1590193;74;711;-59
2023/07/11 10:25:17;;;;;;;;;;;27.10;47.10;;;;;;1592117;74;839;-60
2023/07/11 10:27:22;;;;;;;;;;;27.10;47.30;;;;;;1582163;74;773;-58
2023/07/11 10:29:24;;;;;;;;;;;27.10;47.30;;;;;;1592155;74;1194;-57
2023/07/11 10:31:31;;;;;;;;;;;27.10;47.20;;;;;;1579008;74;797;-61
2023/07/11 10:33:34;;;;;;;;;;;27.10;47.20;;;;;;1588278;74;1905;-58
2023/07/11 10:35:35;;;;;;;;;;;27.10;47.10;;;;;;1578748;74;1920;-59
2023/07/11 10:37:42;;;;;;;;;;;27.10;47.20;;;;;;1573542;74;665;-60
2023/07/11 10:39:47;;;;;;;;;;;27.10;46.90;;;;;;1571096;74;1194;-59
2023/07/11 10:41:57;;;;;;;;;;;27.10;46.80;;;;;;1557390;74;1373;-58
2023/07/11 10:43:59;;;;;;;;;;;27.10;46.60;;;;;;1563466;74;1982;-59
2023/07/11 10:46:02;;;;;;;;;;;27.10;46.00;;;;;;1556431;74;808;-58
2023/07/11 10:48:08;;;;;;;;;;;27.10;46.20;;;;;;1571022;74;1791;-60
2023/07/11 10:50:12;;;;;;;;;;;27.10;46.00;;;;;;1573062;74;1120;-58
2023/07/11 10:52:23;;;;;;;;;;;27.10;44.90;;;;;;1576322;74;1941;-59
2023/07/11 10:54:29;;;;;;;;;;;27.10;45.00;;;;;;1565100;74;710;-55
2023/07/11 10:56:33;;;;;;;;;;;27.10;44.80;;;;;;1559410;74;1927;-57
2023/07/11 10:58:35;;;;;;;;;;;27.10;44.50;;;;;;1571219;74;1824;-57
2023/07/11 11:00:44;;;;;;;;;;;27.10;44.60;;;;;;1574524;74;724;-59
2023/07/11 11:02:47;;;;;;;;;;;27.10;44.70;;;;;;1561177;75;1800;-58
2023/07/11 11:04:51;;;;;;;;;;;27.10;44.80;;;;;;1580345;74;713;-59
2023/07/11 11:06:54;;;;;;;;;;;27.10;44.90;;;;;;1565378;75;1978;-61
2023/07/11 11:08:58;;;;;;;;;;;27.10;44.70;;;;;;1556080;74;1157;-60
2023/07/11 11:11:04;;;;;;;;;;;27.10;44.80;;;;;;1571583;74;782;-58
2023/07/11 11:13:13;;;;;;;;;;;27.10;44.50;;;;;;1559128;74;1724;-59
2023/07/11 11:15:33;;;;;;;;;;;27.10;44.50;;;;;;1564891;74;748;-59
2023/07/11 11:17:39;;;;;;;;;;;27.10;44.20;;;;;;1575259;74;1541;-58
2023/07/11 11:19:52;;;;;;;;;;;27.10;44.40;;;;;;1566954;74;1139;-59
2023/07/11 11:21:58;;;;;;;;;;;27.10;44.40;;;;;;1598084;74;1949;-60
2023/07/11 11:24:02;;;;;;;;;;;27.10;44.30;;;;;;1570520;74;751;-62
2023/07/11 11:26:11;;;;;;;;;;;27.10;44.20;;;;;;1583022;74;565;-60
2023/07/11 11:28:14;;;;;;;;;;;27.10;44.40;;;;;;1563148;74;677;-57
2023/07/11 11:30:35;;;;;;;;;;;27.10;44.30;;;;;;1567993;74;1521;-59
2023/07/11 11:32:41;;;;;;;;;;;27.10;44.20;;;;;;1566189;74;698;-59
2023/07/11 11:35:01;;;;;;;;;;;27.10;44.20;;;;;;1568128;74;788;-59
2023/07/11 11:37:13;;;;;;;;;;;27.10;44.10;;;;;;1573120;74;1925;-61
2023/07/11 11:39:20;;;;;;;;;;;27.10;44.30;;;;;;1570638;74;1695;-60
2023/07/11 11:41:23;;;;;;;;;;;27.10;44.50;;;;;;1593372;74;1704;-60
2023/07/11 11:43:25;;;;;;;;;;;27.10;44.40;;;;;;1573463;74;1656;-59
2023/07/11 11:45:28;;;;;;;;;;;27.10;44.50;;;;;;1577809;74;1353;-60
2023/07/11 11:47:30;;;;;;;;;;;27.10;44.50;;;;;;1573889;74;772;-59
2023/07/11 11:49:32;;;;;;;;;;;27.10;44.60;;;;;;1587289;74;1186;-61
2023/07/11 11:51:34;;;;;;;;;;;27.10;44.60;;;;;;1580676;74;818;-59
2023/07/11 11:53:43;;;;;;;;;;;27.20;44.40;;;;;;1574439;74;736;-60
2023/07/11 11:55:40;;;;;;;;;;;27.20;44.50;;;;;;1594051;74;1934;-59
2023/07/11 11:57:42;;;;;;;;;;;27.10;44.40;;;;;;1584794;74;767;-59
2023/07/11 11:59:44;;;;;;;;;;;27.10;44.40;;;;;;1576654;74;1303;-60
2023/07/11 12:01:47;;;;;;;;;;;27.10;44.70;;;;;;1557631;74;704;-59
2023/07/11 12:03:49;;;;;;;;;;;27.10;44.60;;;;;;1580778;74;792;-60
2023/07/11 12:05:51;;;;;;;;;;;27.10;44.30;;;;;;1573194;74;760;-61
2023/07/11 12:08:07;;;;;;;;;;;27.10;44.10;;;;;;1569723;74;831;-60
2023/07/11 12:10:11;;;;;;;;;;;27.10;43.90;;;;;;1512775;74;1219;-60
2023/07/11 12:12:14;;;;;;;;;;;27.10;44.30;;;;;;1585872;74;660;-59